Time;durP1;ratioP1;P1;durP2;ratioP2;P2;SDS_P1;SDS_P2;PMS_P1;PMS_P2;Temp;Humidity;BMP_temperature;BMP_pressure;BME280_temperature;BME280_humidity;BME280_pressure;Samples;Min_cycle;Max_cycle;Signal;HPM_P1;HPM_P2
2024/03/08 00:02:03;;;;;;;;;;;;;;;-144.99;100.00;67352.69;5086775;28;19955;-78
2024/03/08 00:04:28;;;;;;;;;;;;;;;-144.99;100.00;67352.69;5093763;28;19923;-78
2024/03/08 00:06:53;;;;;;;;;;;;;;;-144.99;100.00;67352.69;5089027;28;20430;-79
2024/03/08 00:09:19;;;;;;;;;;;;;;;-144.99;100.00;67352.69;5086647;28;19919;-78
2024/03/08 00:11:44;;;;;;;;;;;;;;;-144.99;100.00;67352.69;5086183;28;19912;-78
2024/03/08 00:14:09;;;;;;;;;;;;;;;-144.99;100.00;67352.69;5095870;28;19913;-78
2024/03/08 00:16:38;;;;;;;;;;;;;;;-144.99;100.00;67352.69;5085686;28;19988;-78
2024/03/08 00:19:03;;;;;;;;;;;;;;;-144.99;100.00;67352.69;5093309;28;19923;-78
2024/03/08 00:21:28;;;;;;;;;;;;;;;-144.99;100.00;67352.69;5095389;28;20045;-78
2024/03/08 00:23:54;;;;;;;;;;;;;;;-144.99;100.00;67352.69;5082225;28;19919;-78
2024/03/08 00:26:21;;;;;;;;;;;;;;;-144.99;100.00;67352.69;5083314;28;20275;-78
2024/03/08 00:28:48;;;;;;;;;;;;;;;-144.99;100.00;67352.69;5092886;28;19997;-78
2024/03/08 00:31:13;;;;;;;;;;;;;;;-144.99;100.00;67352.69;5095671;28;20010;-79
2024/03/08 00:33:39;;;;;;;;;;;;;;;-144.99;100.00;67352.69;5087378;28;20369;-78
2024/03/08 00:36:04;;;;;;;;;;;;;;;-144.99;100.00;67352.69;5087438;28;19963;-78
2024/03/08 00:38:30;;;;;;;;;;;;;;;-144.99;100.00;67352.69;5085891;28;19934;-78
2024/03/08 00:40:56;;;;;;;;;;;;;;;-144.99;100.00;67352.69;5087278;28;19935;-78
2024/03/08 00:43:21;;;;;;;;;;;;;;;-144.99;100.00;67352.69;5094079;28;20397;-78
2024/03/08 00:45:47;;;;;;;;;;;;;;;-144.99;100.00;67352.69;5095362;28;19916;-78
2024/03/08 00:48:12;;;;;;;;;;;;;;;-144.99;100.00;67352.69;5094184;28;20032;-78
2024/03/08 00:50:37;;;;;;;;;;;;;;;-144.99;100.00;67352.69;5085985;28;20287;-78
2024/03/08 00:53:04;;;;;;;;;;;;;;;-144.99;100.00;67352.69;5094167;28;19916;-78
2024/03/08 00:55:29;;;;;;;;;;;;;;;-144.99;100.00;67352.69;5095244;28;20390;-78
2024/03/08 00:57:55;;;;;;;;;;;;;;;-144.99;100.00;67352.69;5094232;28;20007;-77
2024/03/08 01:00:21;;;;;;;;;;;;;;;-144.99;100.00;67352.69;5094621;28;19962;-78
2024/03/08 01:02:46;;;;;;;;;;;;;;;-144.99;100.00;67352.69;5093515;28;19916;-78
2024/03/08 01:05:11;;;;;;;;;;;;;;;-144.99;100.00;67352.69;5092821;28;19919;-78
2024/03/08 01:07:36;;;;;;;;;;;;;;;-144.99;100.00;67352.69;5094057;28;19912;-78
2024/03/08 01:10:02;;;;;;;;;;;;;;;-144.99;100.00;67352.69;5093316;28;19916;-78
2024/03/08 01:12:28;;;;;;;;;;;;;;;-144.99;100.00;67352.69;5093658;28;19913;-78
2024/03/08 01:14:53;;;;;;;;;;;;;;;-144.99;100.00;67352.69;5092626;28;20409;-78
2024/03/08 01:17:18;;;;;;;;;;;;;;;-144.99;100.00;67352.69;5092549;28;19965;-77
2024/03/08 01:19:44;;;;;;;;;;;;;;;-144.99;100.00;67352.69;5092803;28;19958;-77
2024/03/08 01:22:10;;;;;;;;;;;;;;;-144.99;100.00;67352.69;5093266;28;19912;-77
2024/03/08 01:24:35;;;;;;;;;;;;;;;-144.99;100.00;67352.69;5093653;28;19913;-77
2024/03/08 01:27:01;;;;;;;;;;;;;;;-144.99;100.00;67352.69;5093552;28;19919;-77
2024/03/08 01:29:26;;;;;;;;;;;;;;;-144.99;100.00;67352.69;5092384;28;20306;-77
2024/03/08 01:31:52;;;;;;;;;;;;;;;-144.99;100.00;67352.69;5093123;28;19912;-77
2024/03/08 01:34:17;;;;;;;;;;;;;;;-144.99;100.00;67352.69;5091979;28;20531;-77
2024/03/08 01:36:42;;;;;;;;;;;;;;;-144.99;100.00;67352.69;5091576;28;20041;-77
2024/03/08 01:39:09;;;;;;;;;;;;;;;-144.99;100.00;67352.69;5091944;28;19920;-77
2024/03/08 01:41:35;;;;;;;;;;;;;;;-144.99;100.00;67352.69;5084181;28;20337;-77
2024/03/08 01:44:00;;;;;;;;;;;;;;;-144.99;100.00;67352.69;5093002;28;20011;-77
2024/03/08 01:46:28;;;;;;;;;;;;;;;-144.99;100.00;67352.69;5092726;28;19947;-77
2024/03/08 01:48:53;;;;;;;;;;;;;;;-144.99;100.00;67352.69;5091767;28;19978;-77
2024/03/08 01:51:19;;;;;;;;;;;;;;;-144.99;100.00;67352.69;5092861;28;20454;-77
2024/03/08 01:53:46;;;;;;;;;;;;;;;-144.99;100.00;67352.69;5093551;28;19986;-77
2024/03/08 01:56:13;;;;;;;;;;;;;;;-144.99;100.00;67352.69;5093454;28;20000;-78
2024/03/08 01:58:41;;;;;;;;;;;;;;;-144.99;100.00;67352.69;5091139;28;20082;-78
2024/03/08 02:01:07;;;;;;;;;;;;;;;-144.99;100.00;67352.69;5091157;28;19920;-78
2024/03/08 02:03:32;;;;;;;;;;;;;;;-144.99;100.00;67352.69;5092320;28;20543;-78
2024/03/08 02:05:58;;;;;;;;;;;;;;;-144.99;100.00;67352.69;5092864;28;19912;-77
2024/03/08 02:08:24;;;;;;;;;;;;;;;-144.99;100.00;67352.69;5090907;28;19958;-77
2024/03/08 02:10:49;;;;;;;;;;;;;;;-144.99;100.00;67352.69;5093248;28;19950;-77
2024/03/08 02:13:15;;;;;;;;;;;;;;;-144.99;100.00;67352.69;5092800;28;19919;-77
2024/03/08 02:15:50;;;;;;;;;;;;;;;-144.99;100.00;67352.69;5091624;28;19919;-77
2024/03/08 02:18:15;;;;;;;;;;;;;;;-144.99;100.00;67352.69;5092459;28;19912;-77
2024/03/08 02:20:40;;;;;;;;;;;;;;;-144.99;100.00;67352.69;5093120;28;20295;-78
2024/03/08 02:23:05;;;;;;;;;;;;;;;-144.99;100.00;67352.69;5092880;28;19912;-77
2024/03/08 02:25:31;;;;;;;;;;;;;;;-144.99;100.00;67352.69;5092553;28;19918;-77
2024/03/08 02:27:56;;;;;;;;;;;;;;;-144.99;100.00;67352.69;5092967;28;19912;-77
2024/03/08 02:30:21;;;;;;;;;;;;;;;-144.99;100.00;67352.69;5092007;28;20011;-77
2024/03/08 02:32:46;;;;;;;;;;;;;;;-144.99;100.00;67352.69;5092676;28;19923;-77
2024/03/08 02:35:11;;;;;;;;;;;;;;;-144.99;100.00;67352.69;5092526;28;19965;-77
2024/03/08 02:37:38;;;;;;;;;;;;;;;-144.99;100.00;67352.69;5091231;28;19912;-77
2024/03/08 02:40:03;;;;;;;;;;;;;;;-144.99;100.00;67352.69;5090762;28;19969;-77
2024/03/08 02:42:29;;;;;;;;;;;;;;;-144.99;100.00;67352.69;5092387;28;19912;-77
2024/03/08 02:44:54;;;;;;;;;;;;;;;-144.99;100.00;67352.69;5092646;28;20007;-77
2024/03/08 02:47:20;;;;;;;;;;;;;;;-144.99;100.00;67352.69;5093000;28;19912;-77
2024/03/08 02:49:45;;;;;;;;;;;;;;;-144.99;100.00;67352.69;5091642;28;19919;-77
2024/03/08 02:52:11;;;;;;;;;;;;;;;-144.99;100.00;67352.69;5092392;28;20286;-77
2024/03/08 02:54:36;;;;;;;;;;;;;;;-144.99;100.00;67352.69;5091570;28;19989;-77
2024/03/08 02:57:01;;;;;;;;;;;;;;;-144.99;100.00;67352.69;5092590;28;19951;-77
2024/03/08 02:59:27;;;;;;;;;;;;;;;-144.99;100.00;67352.69;5091349;28;20366;-77
2024/03/08 03:01:52;;;;;;;;;;;;;;;-144.99;100.00;67352.69;5092207;28;20364;-77
2024/03/08 03:04:18;;;;;;;;;;;;;;;-144.99;100.00;67352.69;5092337;28;19916;-78
2024/03/08 03:06:43;;;;;;;;;;;;;;;-144.99;100.00;67352.69;5090845;28;19927;-77
2024/03/08 03:09:10;;;;;;;;;;;;;;;-144.99;100.00;67352.69;5091394;28;19939;-77
2024/03/08 03:11:35;;;;;;;;;;;;;;;-144.99;100.00;67352.69;5090991;28;19916;-77
2024/03/08 03:14:00;;;;;;;;;;;;;;;-144.99;100.00;67352.69;5094998;28;19962;-77
2024/03/08 03:16:26;;;;;;;;;;;;;;;-144.99;100.00;67352.69;5094485;28;19965;-77
2024/03/08 03:18:51;;;;;;;;;;;;;;;-144.99;100.00;67352.69;5095252;28;19956;-77
2024/03/08 03:21:17;;;;;;;;;;;;;;;-144.99;100.00;67352.69;5096046;28;20290;-77
2024/03/08 03:23:42;;;;;;;;;;;;;;;-144.99;100.00;67352.69;5096065;28;19912;-77
2024/03/08 03:26:08;;;;;;;;;;;;;;;-144.99;100.00;67352.69;5095822;28;20062;-77
2024/03/08 03:28:33;;;;;;;;;;;;;;;-144.99;100.00;67352.69;5095121;28;19916;-77
2024/03/08 03:30:59;;;;;;;;;;;;;;;-144.99;100.00;67352.69;5096273;28;19919;-77
2024/03/08 03:33:24;;;;;;;;;;;;;;;-144.99;100.00;67352.69;5094494;28;19937;-77
2024/03/08 03:35:51;;;;;;;;;;;;;;;-144.99;100.00;67352.69;5095986;28;19951;-77
2024/03/08 03:38:17;;;;;;;;;;;;;;;-144.99;100.00;67352.69;5093805;28;20294;-77
2024/03/08 03:40:45;;;;;;;;;;;;;;;-144.99;100.00;67352.69;5095783;28;19916;-77
2024/03/08 03:43:10;;;;;;;;;;;;;;;-144.99;100.00;67352.69;5096022;28;20397;-77
2024/03/08 03:45:36;;;;;;;;;;;;;;;-144.99;100.00;67352.69;5095582;28;19912;-77
2024/03/08 03:48:06;;;;;;;;;;;;;;;-144.99;100.00;67352.69;5095983;28;19912;-77
2024/03/08 03:50:34;;;;;;;;;;;;;;;-144.99;100.00;67352.69;5093761;28;19916;-77
2024/03/08 03:52:59;;;;;;;;;;;;;;;-144.99;100.00;67352.69;5095353;28;19912;-77
2024/03/08 03:55:24;;;;;;;;;;;;;;;-144.99;100.00;67352.69;5093813;28;19955;-77
2024/03/08 03:57:50;;;;;;;;;;;;;;;-144.99;100.00;67352.69;5095447;28;19913;-77
2024/03/08 04:00:15;;;;;;;;;;;;;;;-144.99;100.00;67352.69;5093588;28;20343;-78
2024/03/08 04:02:41;;;;;;;;;;;;;;;-144.99;100.00;67352.69;5095283;28;19916;-77
2024/03/08 04:05:07;;;;;;;;;;;;;;;-144.99;100.00;67352.69;5095665;28;19920;-78
2024/03/08 04:07:32;;;;;;;;;;;;;;;-144.99;100.00;67352.69;5095884;28;19919;-78
2024/03/08 04:09:57;;;;;;;;;;;;;;;-144.99;100.00;67352.69;5094042;28;19912;-77
2024/03/08 04:12:22;;;;;;;;;;;;;;;-144.99;100.00;67352.69;5094331;28;20294;-77
2024/03/08 04:14:48;;;;;;;;;;;;;;;-144.99;100.00;67352.69;5094270;28;19947;-78
2024/03/08 04:17:13;;;;;;;;;;;;;;;-144.99;100.00;67352.69;5094074;28;20375;-77
2024/03/08 04:19:39;;;;;;;;;;;;;;;-144.99;100.00;67352.69;5093936;28;19934;-78
2024/03/08 04:22:05;;;;;;;;;;;;;;;-144.99;100.00;67352.69;5095073;28;20271;-77
2024/03/08 04:24:30;;;;;;;;;;;;;;;-144.99;100.00;67352.69;5094873;28;20011;-78
2024/03/08 04:26:56;;;;;;;;;;;;;;;-144.99;100.00;67352.69;5096439;28;19920;-78
2024/03/08 04:29:21;;;;;;;;;;;;;;;-144.99;100.00;67352.69;5094078;28;19913;-78
2024/03/08 04:31:47;;;;;;;;;;;;;;;-144.99;100.00;67352.69;5094778;28;19919;-77
2024/03/08 04:34:12;;;;;;;;;;;;;;;-144.99;100.00;67352.69;5095956;28;19912;-78
2024/03/08 04:36:38;;;;;;;;;;;;;;;-144.99;100.00;67352.69;5094788;28;19919;-78
2024/03/08 04:39:03;;;;;;;;;;;;;;;-144.99;100.00;67352.69;5092780;28;19924;-78
2024/03/08 04:41:30;;;;;;;;;;;;;;;-144.99;100.00;67352.69;5093416;28;19935;-78
2024/03/08 04:43:57;;;;;;;;;;;;;;;-144.99;100.00;67352.69;5094213;28;20347;-78
2024/03/08 04:46:25;;;;;;;;;;;;;;;-144.99;100.00;67352.69;5094641;28;19912;-78
2024/03/08 04:48:50;;;;;;;;;;;;;;;-144.99;100.00;67352.69;5093878;28;19919;-78
2024/03/08 04:51:16;;;;;;;;;;;;;;;-144.99;100.00;67352.69;5094474;28;19912;-78
2024/03/08 04:53:41;;;;;;;;;;;;;;;-144.99;100.00;67352.69;5094536;28;19912;-77
2024/03/08 04:56:07;;;;;;;;;;;;;;;-144.99;100.00;67352.69;5094147;28;20295;-77
2024/03/08 04:58:34;;;;;;;;;;;;;;;-144.99;100.00;67352.69;5093353;28;19919;-78
2024/03/08 05:01:00;;;;;;;;;;;;;;;-144.99;100.00;67352.69;5093194;28;19923;-77
2024/03/08 05:03:26;;;;;;;;;;;;;;;-144.99;100.00;67352.69;5093082;28;19916;-77
2024/03/08 05:05:51;;;;;;;;;;;;;;;-144.99;100.00;67352.69;5092734;28;19943;-78
2024/03/08 05:08:18;;;;;;;;;;;;;;;-144.99;100.00;67352.69;5092092;28;20378;-77
2024/03/08 05:10:43;;;;;;;;;;;;;;;-144.99;100.00;67352.69;5092546;28;19916;-77
2024/03/08 05:13:09;;;;;;;;;;;;;;;-144.99;100.00;67352.69;5094086;28;19935;-77
2024/03/08 05:15:34;;;;;;;;;;;;;;;-144.99;100.00;67352.69;5092352;28;20019;-77
2024/03/08 05:18:00;;;;;;;;;;;;;;;-144.99;100.00;67352.69;5092448;28;19916;-77
2024/03/08 05:20:25;;;;;;;;;;;;;;;-144.99;100.00;67352.69;5091894;28;19969;-78
2024/03/08 05:22:51;;;;;;;;;;;;;;;-144.99;100.00;67352.69;5093592;28;20302;-77
2024/03/08 05:25:17;;;;;;;;;;;;;;;-144.99;100.00;67352.69;5092197;28;19955;-77
2024/03/08 05:27:42;;;;;;;;;;;;;;;-144.99;100.00;67352.69;5092297;28;19973;-77
2024/03/08 05:30:14;;;;;;;;;;;;;;;-144.99;100.00;67352.69;5092821;28;20378;-77
2024/03/08 05:32:39;;;;;;;;;;;;;;;-144.99;100.00;67352.69;5093563;28;19920;-77
2024/03/08 05:35:07;;;;;;;;;;;;;;;-144.99;100.00;67352.69;5093002;28;20378;-77
2024/03/08 05:37:32;;;;;;;;;;;;;;;-144.99;100.00;67352.69;5091861;28;19919;-77
2024/03/08 05:39:58;;;;;;;;;;;;;;;-144.99;100.00;67352.69;5091448;28;20298;-77
2024/03/08 05:42:23;;;;;;;;;;;;;;;-144.99;100.00;67352.69;5093409;28;19995;-77
2024/03/08 05:44:49;;;;;;;;;;;;;;;-144.99;100.00;67352.69;5092939;28;19990;-77
2024/03/08 05:47:15;;;;;;;;;;;;;;;-144.99;100.00;67352.69;5093371;28;19912;-77
2024/03/08 05:49:41;;;;;;;;;;;;;;;-144.99;100.00;67352.69;5092501;28;19912;-77
2024/03/08 05:52:07;;;;;;;;;;;;;;;-144.99;100.00;67352.69;5092988;28;19913;-77
2024/03/08 05:54:33;;;;;;;;;;;;;;;-144.99;100.00;67352.69;5092180;28;19912;-77
2024/03/08 05:56:58;;;;;;;;;;;;;;;-144.99;100.00;67352.69;5091619;28;19943;-77
2024/03/08 05:59:23;;;;;;;;;;;;;;;-144.99;100.00;67352.69;5090732;28;19923;-77
2024/03/08 06:01:49;;;;;;;;;;;;;;;-144.99;100.00;67352.69;5093253;28;19915;-77
2024/03/08 06:04:14;;;;;;;;;;;;;;;-144.99;100.00;67352.69;5095647;28;19964;-78
2024/03/08 06:06:39;;;;;;;;;;;;;;;-144.99;100.00;67352.69;5093905;28;19912;-78
2024/03/08 06:09:11;;;;;;;;;;;;;;;-144.99;100.00;67352.69;5084258;28;19916;-77
2024/03/08 06:11:37;;;;;;;;;;;;;;;-144.99;100.00;67352.69;5091838;28;19936;-77
2024/03/08 06:14:02;;;;;;;;;;;;;;;-144.99;100.00;67352.69;5093141;28;20007;-78
2024/03/08 06:16:29;;;;;;;;;;;;;;;-144.99;100.00;67352.69;5091530;28;20378;-78
2024/03/08 06:18:57;;;;;;;;;;;;;;;-144.99;100.00;67352.69;5090432;28;19916;-78
2024/03/08 06:21:22;;;;;;;;;;;;;;;-144.99;100.00;67352.69;5093067;28;19912;-77
2024/03/08 06:23:48;;;;;;;;;;;;;;;-144.99;100.00;67352.69;5093367;28;19912;-77
2024/03/08 06:26:13;;;;;;;;;;;;;;;-144.99;100.00;67352.69;5092825;28;19916;-77
2024/03/08 06:28:38;;;;;;;;;;;;;;;-144.99;100.00;67352.69;5087925;28;20386;-77
2024/03/08 06:31:03;;;;;;;;;;;;;;;-144.99;100.00;67352.69;5087330;28;20343;-77
2024/03/08 06:33:29;;;;;;;;;;;;;;;-144.99;100.00;67352.69;5093150;28;19912;-77
2024/03/08 06:35:57;;;;;;;;;;;;;;;-144.99;100.00;67352.69;5091545;28;20343;-78
2024/03/08 06:38:22;;;;;;;;;;;;;;;-144.99;100.00;67352.69;5092185;28;20273;-77
2024/03/08 06:40:47;;;;;;;;;;;;;;;-144.99;100.00;67352.69;5092001;28;19916;-77
2024/03/08 06:43:15;;;;;;;;;;;;;;;-144.99;100.00;67352.69;5092475;28;19916;-77
2024/03/08 06:45:41;;;;;;;;;;;;;;;-144.99;100.00;67352.69;5092937;28;19995;-77
2024/03/08 06:48:09;;;;;;;;;;;;;;;-144.99;100.00;67352.69;5094493;28;20405;-78
2024/03/08 06:50:36;;;;;;;;;;;;;;;-144.99;100.00;67352.69;5097036;28;20007;-77
2024/03/08 06:53:03;;;;;;;;;;;;;;;-144.99;100.00;67352.69;5096893;28;19923;-77
2024/03/08 06:55:28;;;;;;;;;;;;;;;-144.99;100.00;67352.69;5096375;28;19912;-77
2024/03/08 06:57:54;;;;;;;;;;;;;;;-144.99;100.00;67352.69;5096676;28;19962;-77
2024/03/08 07:00:22;;;;;;;;;;;;;;;-144.99;100.00;67352.69;5095931;28;19969;-77
2024/03/08 07:02:53;;;;;;;;;;;;;;;-144.99;100.00;67352.69;5095179;28;19916;-77
2024/03/08 07:05:18;;;;;;;;;;;;;;;-144.99;100.00;67352.69;5096509;28;20275;-77
2024/03/08 07:07:44;;;;;;;;;;;;;;;-144.99;100.00;67352.69;5095348;28;19919;-77
2024/03/08 07:10:14;;;;;;;;;;;;;;;-144.99;100.00;67352.69;5096085;28;20346;-77
2024/03/08 07:12:39;;;;;;;;;;;;;;;-144.99;100.00;67352.69;5095286;28;19920;-77
2024/03/08 07:15:05;;;;;;;;;;;;;;;-144.99;100.00;67352.69;5096341;28;20310;-77
2024/03/08 07:17:31;;;;;;;;;;;;;;;-144.99;100.00;67352.69;5096451;28;19912;-77
2024/03/08 07:19:59;;;;;;;;;;;;;;;-144.99;100.00;67352.69;5094505;28;20043;-78
2024/03/08 07:22:24;;;;;;;;;;;;;;;-144.99;100.00;67352.69;5096472;28;19912;-77
2024/03/08 07:25:10;;;;;;;;;;;;;;;-144.99;100.00;67352.69;5096491;28;19934;-80
2024/03/08 07:27:36;;;;;;;;;;;;;;;-144.99;100.00;67352.69;5096493;28;19912;-78
2024/03/08 07:30:02;;;;;;;;;;;;;;;-144.99;100.00;67352.69;5094904;28;20329;-78
2024/03/08 07:32:29;;;;;;;;;;;;;;;-144.99;100.00;67352.69;5098191;28;19919;-78
2024/03/08 07:34:55;;;;;;;;;;;;;;;-144.99;100.00;67352.69;5097101;28;20336;-78
2024/03/08 07:37:20;;;;;;;;;;;;;;;-144.99;100.00;67352.69;5099063;28;19967;-78
2024/03/08 07:39:46;;;;;;;;;;;;;;;-144.99;100.00;67352.69;5096384;28;20011;-77
2024/03/08 07:42:12;;;;;;;;;;;;;;;-144.99;100.00;67352.69;5098821;28;20291;-78
2024/03/08 07:44:37;;;;;;;;;;;;;;;-144.99;100.00;67352.69;5096526;28;19916;-81
2024/03/08 07:47:03;;;;;;;;;;;;;;;-144.99;100.00;67352.69;5097057;28;19913;-78
2024/03/08 07:49:29;;;;;;;;;;;;;;;-144.99;100.00;67352.69;5096826;28;20283;-78
2024/03/08 07:51:54;;;;;;;;;;;;;;;-144.99;100.00;67352.69;5096562;28;19962;-78
2024/03/08 07:54:20;;;;;;;;;;;;;;;-144.99;100.00;67352.69;5095774;28;19938;-78
2024/03/08 07:56:45;;;;;;;;;;;;;;;-144.99;100.00;67352.69;5097700;28;20307;-78
2024/03/08 07:59:11;;;;;;;;;;;;;;;-144.99;100.00;67352.69;5094059;28;19965;-78
2024/03/08 08:01:37;;;;;;;;;;;;;;;-144.99;100.00;67352.69;5097818;28;20370;-78
2024/03/08 08:04:02;;;;;;;;;;;;;;;-144.99;100.00;67352.69;5096924;28;19916;-78
2024/03/08 08:06:28;;;;;;;;;;;;;;;-144.99;100.00;67352.69;5097876;28;19961;-78
2024/03/08 08:08:53;;;;;;;;;;;;;;;-144.99;100.00;67352.69;5095819;28;19934;-77
2024/03/08 08:11:20;;;;;;;;;;;;;;;-144.99;100.00;67352.69;5096036;28;19987;-78
2024/03/08 08:13:45;;;;;;;;;;;;;;;-144.99;100.00;67352.69;5096059;28;19989;-78
2024/03/08 08:16:10;;;;;;;;;;;;;;;-144.99;100.00;67352.69;5097712;28;19912;-78
2024/03/08 08:18:36;;;;;;;;;;;;;;;-144.99;100.00;67352.69;5096570;28;19919;-77
2024/03/08 08:21:01;;;;;;;;;;;;;;;-144.99;100.00;67352.69;5092846;28;20413;-78
2024/03/08 08:23:27;;;;;;;;;;;;;;;-144.99;100.00;67352.69;5093441;28;19919;-77
2024/03/08 08:25:52;;;;;;;;;;;;;;;-144.99;100.00;67352.69;5094381;28;19919;-77
2024/03/08 08:28:18;;;;;;;;;;;;;;;-144.99;100.00;67352.69;5092507;28;19912;-78
2024/03/08 08:30:46;;;;;;;;;;;;;;;-144.99;100.00;67352.69;5093352;28;20366;-78
2024/03/08 08:33:12;;;;;;;;;;;;;;;-144.99;100.00;67352.69;5094259;28;19964;-78
2024/03/08 08:35:38;;;;;;;;;;;;;;;-144.99;100.00;67352.69;5092584;28;19912;-78
2024/03/08 08:38:03;;;;;;;;;;;;;;;-144.99;100.00;67352.69;5094156;28;19923;-78
2024/03/08 08:40:30;;;;;;;;;;;;;;;-144.99;100.00;67352.69;5092166;28;19916;-78
2024/03/08 08:42:57;;;;;;;;;;;;;;;-144.99;100.00;67352.69;5094204;28;19912;-79
2024/03/08 08:45:22;;;;;;;;;;;;;;;-144.99;100.00;67352.69;5094940;28;19920;-79
2024/03/08 08:47:49;;;;;;;;;;;;;;;-144.99;100.00;67352.69;5094907;28;20382;-79
2024/03/08 08:50:15;;;;;;;;;;;;;;;-144.99;100.00;67352.69;5094576;28;19962;-80
2024/03/08 08:52:43;;;;;;;;;;;;;;;-144.99;100.00;67352.69;5086036;28;19912;-80
2024/03/08 08:55:09;;;;;;;;;;;;;;;-144.99;100.00;67352.69;5086911;28;20394;-80
2024/03/08 08:57:37;;;;;;;;;;;;;;;-144.99;100.00;67352.69;5076172;28;19913;-80
2024/03/08 09:00:07;;;;;;;;;;;;;;;-144.99;100.00;67352.69;5083035;28;19917;-80
2024/03/08 09:02:32;;;;;;;;;;;;;;;-144.99;100.00;67352.69;5073109;28;20045;-81
2024/03/08 09:04:57;;;;;;;;;;;;;;;-144.99;100.00;67352.69;5074430;28;19981;-81
2024/03/08 09:07:22;;;;;;;;;;;;;;;-144.99;100.00;67352.69;5076728;28;19920;-81
2024/03/08 09:09:48;;;;;;;;;;;;;;;-144.99;100.00;67352.69;5095248;28;20474;-81
2024/03/08 09:12:13;;;;;;;;;;;;;;;-144.99;100.00;67352.69;5088443;28;19916;-81
2024/03/08 09:14:42;;;;;;;;;;;;;;;-144.99;100.00;67352.69;5085018;28;19912;-81
2024/03/08 09:17:10;;;;;;;;;;;;;;;-144.99;100.00;67352.69;5091651;28;19912;-81
2024/03/08 09:19:36;;;;;;;;;;;;;;;-144.99;100.00;67352.69;5092170;28;19920;-81
2024/03/08 09:22:03;;;;;;;;;;;;;;;-144.99;100.00;67352.69;5092770;28;20386;-81
2024/03/08 09:24:29;;;;;;;;;;;;;;;-144.99;100.00;67352.69;5093176;28;20317;-81
2024/03/08 09:26:55;;;;;;;;;;;;;;;-144.99;100.00;67352.69;5092884;28;19995;-81
2024/03/08 09:29:20;;;;;;;;;;;;;;;-144.99;100.00;67352.69;5090698;28;19919;-81
2024/03/08 09:31:46;;;;;;;;;;;;;;;-144.99;100.00;67352.69;5092640;28;19945;-82
2024/03/08 09:34:11;;;;;;;;;;;;;;;-144.99;100.00;67352.69;5092951;28;19920;-82
2024/03/08 09:36:36;;;;;;;;;;;;;;;-144.99;100.00;67352.69;5088871;28;19916;-82
2024/03/08 09:39:02;;;;;;;;;;;;;;;-144.99;100.00;67352.69;5085852;28;20271;-82
2024/03/08 09:41:28;;;;;;;;;;;;;;;-144.99;100.00;67352.69;5091273;28;20275;-82
2024/03/08 09:43:55;;;;;;;;;;;;;;;-144.99;100.00;67352.69;5090888;28;20007;-83
2024/03/08 09:46:22;;;;;;;;;;;;;;;-144.99;100.00;67352.69;5091117;28;19916;-83
2024/03/08 09:48:47;;;;;;;;;;;;;;;-144.99;100.00;67352.69;5090735;28;19915;-83
2024/03/08 09:51:15;;;;;;;;;;;;;;;-144.99;100.00;67352.69;5091295;28;20379;-85
2024/03/08 09:53:41;;;;;;;;;;;;;;;-144.99;100.00;67352.69;5084807;28;20019;-84
2024/03/08 09:56:07;;;;;;;;;;;;;;;-144.99;100.00;67352.69;5092515;28;19976;-83
2024/03/08 10:00:58;;;;;;;;;;;;;;;-144.99;100.00;67352.69;5086143;28;19966;-83
2024/03/08 10:03:25;;;;;;;;;;;;;;;-144.99;100.00;67352.69;5096345;28;19923;-84
2024/03/08 10:05:51;;;;;;;;;;;;;;;-144.99;100.00;67352.69;5094700;28;19959;-82
2024/03/08 10:08:17;;;;;;;;;;;;;;;-144.99;100.00;67352.69;5093559;28;20283;-83
2024/03/08 10:10:42;;;;;;;;;;;;;;;-144.99;100.00;67352.69;5094644;28;19934;-83
2024/03/08 10:13:09;;;;;;;;;;;;;;;-144.99;100.00;67352.69;5093705;28;19912;-83
2024/03/08 10:15:34;;;;;;;;;;;;;;;-144.99;100.00;67352.69;5092698;28;19916;-83
2024/03/08 10:18:02;;;;;;;;;;;;;;;-144.99;100.00;67352.69;5092536;28;19919;-83
2024/03/08 10:20:27;;;;;;;;;;;;;;;-144.99;100.00;67352.69;5087101;28;20030;-82
2024/03/08 10:22:53;;;;;;;;;;;;;;;-144.99;100.00;67352.69;5090150;28;20362;-83
2024/03/08 10:25:19;;;;;;;;;;;;;;;-144.99;100.00;67352.69;5099577;28;19912;-83
2024/03/08 10:27:45;;;;;;;;;;;;;;;-144.99;100.00;67352.69;5099631;28;20012;-83
2024/03/08 10:30:12;;;;;;;;;;;;;;;-144.99;100.00;67352.69;5071118;28;19967;-83
2024/03/08 10:32:38;;;;;;;;;;;;;;;-144.99;100.00;67352.69;5087318;28;19912;-83
2024/03/08 10:35:03;;;;;;;;;;;;;;;-144.99;100.00;67352.69;5081530;28;19927;-83
2024/03/08 10:37:29;;;;;;;;;;;;;;;-144.99;100.00;67352.69;5073187;28;19917;-83
2024/03/08 10:40:10;;;;;;;;;;;;;;;-144.99;100.00;67352.69;5071046;28;19972;-83
2024/03/08 10:42:40;;;;;;;;;;;;;;;-144.99;100.00;67352.69;5072030;28;19919;-83
2024/03/08 10:45:08;;;;;;;;;;;;;;;-144.99;100.00;67352.69;5076890;28;19927;-83
2024/03/08 10:47:35;;;;;;;;;;;;;;;-144.99;100.00;67352.69;5091232;28;19970;-82
2024/03/08 10:50:22;;;;;;;;;;;;;;;-144.99;100.00;67352.69;5090984;28;19954;-83
2024/03/08 10:52:51;;;;;;;;;;;;;;;-144.99;100.00;67352.69;5090516;28;20363;-83
2024/03/08 10:55:22;;;;;;;;;;;;;;;-144.99;100.00;67352.69;5082196;28;19912;-83
2024/03/08 10:57:48;;;;;;;;;;;;;;;-144.99;100.00;67352.69;5092177;28;20012;-83
2024/03/08 11:00:14;;;;;;;;;;;;;;;-144.99;100.00;67352.69;5090252;28;20006;-83
2024/03/08 11:02:39;;;;;;;;;;;;;;;-144.99;100.00;67352.69;5091394;28;19992;-83
2024/03/08 11:05:05;;;;;;;;;;;;;;;-144.99;100.00;67352.69;5094815;28;19916;-84
2024/03/08 11:07:37;;;;;;;;;;;;;;;-144.99;100.00;67352.69;5093106;28;19912;-83
2024/03/08 11:10:05;;;;;;;;;;;;;;;-144.99;100.00;67352.69;5093831;28;19921;-83
2024/03/08 11:12:36;;;;;;;;;;;;;;;-144.99;100.00;67352.69;5092733;28;20386;-84
2024/03/08 11:15:23;;;;;;;;;;;;;;;-144.99;100.00;67352.69;5084170;28;20331;-84
2024/03/08 11:17:49;;;;;;;;;;;;;;;-144.99;100.00;67352.69;5094709;28;19919;-84
2024/03/08 11:20:16;;;;;;;;;;;;;;;-144.99;100.00;67352.69;5093817;28;19916;-84
2024/03/08 11:22:45;;;;;;;;;;;;;;;-144.99;100.00;67352.69;5092055;28;20469;-83
2024/03/08 11:25:30;;;;;;;;;;;;;;;-144.99;100.00;67352.69;5094521;28;19912;-83
2024/03/08 11:28:08;;;;;;;;;;;;;;;-144.99;100.00;67352.69;5092327;28;19999;-83
2024/03/08 11:30:33;;;;;;;;;;;;;;;-144.99;100.00;67352.69;5092441;28;20428;-83
2024/03/08 11:33:01;;;;;;;;;;;;;;;-144.99;100.00;67352.69;5094672;28;19912;-83
2024/03/08 11:35:27;;;;;;;;;;;;;;;-144.99;100.00;67352.69;5097475;28;19961;-83
2024/03/08 11:37:52;;;;;;;;;;;;;;;-144.99;100.00;67352.69;5099543;28;19912;-84
2024/03/08 11:40:19;;;;;;;;;;;;;;;-144.99;100.00;67352.69;5097170;28;19916;-83
2024/03/08 11:42:48;;;;;;;;;;;;;;;-144.99;100.00;67352.69;5098803;28;19937;-84
2024/03/08 11:45:14;;;;;;;;;;;;;;;-144.99;100.00;67352.69;5097742;28;20002;-83
2024/03/08 11:47:46;;;;;;;;;;;;;;;-144.99;100.00;67352.69;5097185;28;20390;-83
2024/03/08 11:50:11;;;;;;;;;;;;;;;-144.99;100.00;67352.69;5094424;28;20304;-84
2024/03/08 11:52:37;;;;;;;;;;;;;;;-144.99;100.00;67352.69;5094715;28;19912;-83
2024/03/08 11:55:02;;;;;;;;;;;;;;;-144.99;100.00;67352.69;5093233;28;20383;-84
2024/03/08 11:57:28;;;;;;;;;;;;;;;-144.99;100.00;67352.69;5096119;28;19965;-84
2024/03/08 11:59:55;;;;;;;;;;;;;;;-144.99;100.00;67352.69;5093667;28;19927;-83
2024/03/08 12:02:20;;;;;;;;;;;;;;;-144.99;100.00;67352.69;5093879;28;20361;-83
2024/03/08 12:04:48;;;;;;;;;;;;;;;-144.99;100.00;67352.69;5094687;28;19912;-84
2024/03/08 12:07:14;;;;;;;;;;;;;;;-144.99;100.00;67352.69;5094184;28;19912;-83
2024/03/08 12:09:46;;;;;;;;;;;;;;;-144.99;100.00;67352.69;5093542;28;19920;-83
2024/03/08 12:12:11;;;;;;;;;;;;;;;-144.99;100.00;67352.69;5094321;28;19919;-83
2024/03/08 12:14:37;;;;;;;;;;;;;;;-144.99;100.00;67352.69;5095183;28;20298;-83
2024/03/08 12:17:04;;;;;;;;;;;;;;;-144.99;100.00;67352.69;5094793;28;19946;-83